Congress, Ohio
Current Conditions -  °F | °C
As of 5:29 AM on Thursday 23 Oct 2014 (Local Time) from KBJJ Reporting Station
Broken Clouds Broken Clouds  
Wind Chill: 41°   Ceiling: 1300
Heat Index: 46°   Visibility: 10mi
Dew Point: 43°   Wind: 9mph
Humidity: 89%   Direction: 340°NNW
Pressure: 30.2"   Gusts: NA
Location:  40.9441°N, 82.1006°W
Report Text: KBJJ 230929Z AUTO 34008KT 10SM BKN013 08/06 A3020 RMK AO2 T00780061 TSNO
Loading
Personal Weather Stations






























Interactive Weather Map
Tropical Storm Tracking
New forecast layout! Learn more

10-Day Weather Forecast

Advertisements
Track Severe Weather on mobile